Time;durP1;ratioP1;P1;durP2;ratioP2;P2;SDS_P1;SDS_P2;PMS_P1;PMS_P2;Temp;Humidity;BMP_temperature;BMP_pressure;BME280_temperature;BME280_humidity;BME280_pressure;Samples;Min_cycle;Max_cycle;Signal;HPM_P1;HPM_P2
2022/04/24 00:02:05;;;;;;;12.65;5.97;;;7.80;99.90;;;;;;5075016;28;20491;-81
2022/04/24 00:04:30;;;;;;;17.00;6.82;;;7.80;99.90;;;;;;5074643;28;20044;-82
2022/04/24 00:06:56;;;;;;;11.93;6.13;;;7.90;99.90;;;;;;5075077;28;20083;-82
2022/04/24 00:09:25;;;;;;;16.08;7.25;;;7.90;99.90;;;;;;5075002;28;20124;-82
2022/04/24 00:11:50;;;;;;;12.88;6.85;;;7.90;99.90;;;;;;5075274;28;20049;-81
2022/04/24 00:14:17;;;;;;;15.23;8.50;;;7.80;99.90;;;;;;5074997;28;20127;-82
2022/04/24 00:16:44;;;;;;;14.70;7.20;;;7.80;99.90;;;;;;5075189;28;20041;-82
2022/04/24 00:19:10;;;;;;;12.60;6.85;;;7.70;99.90;;;;;;5075044;28;20048;-83
2022/04/24 00:21:36;;;;;;;10.48;7.00;;;7.70;99.90;;;;;;5074885;28;20040;-81
2022/04/24 00:24:02;;;;;;;9.65;6.32;;;7.70;99.90;;;;;;5074649;28;20360;-82
2022/04/24 00:26:28;;;;;;;12.15;6.63;;;7.70;99.90;;;;;;5074523;28;20098;-82
2022/04/24 00:28:54;;;;;;;9.60;6.25;;;7.60;99.90;;;;;;5074546;28;20033;-82
2022/04/24 00:31:22;;;;;;;12.65;7.05;;;7.50;99.90;;;;;;5074768;28;20175;-82
2022/04/24 00:33:48;;;;;;;12.70;7.18;;;7.40;99.90;;;;;;5075162;28;20391;-82
2022/04/24 00:36:14;;;;;;;10.38;6.25;;;7.30;99.90;;;;;;5075587;28;20044;-83
2022/04/24 00:38:39;;;;;;;11.38;6.88;;;7.70;99.90;;;;;;5075366;28;20048;-83
2022/04/24 00:41:05;;;;;;;12.68;7.43;;;7.30;99.90;;;;;;5057240;28;20526;-83
2022/04/24 00:43:30;;;;;;;14.00;7.45;;;7.20;99.90;;;;;;5076023;28;20044;-82
2022/04/24 00:46:27;;;;;;;10.77;7.07;;;7.10;99.90;;;;;;5076813;28;20044;-81
2022/04/24 00:48:53;;;;;;;15.65;7.68;;;7.10;99.90;;;;;;5095267;28;20026;-83
2022/04/24 00:51:19;;;;;;;11.43;7.18;;;7.10;99.90;;;;;;5098498;28;20044;-83
2022/04/24 00:53:44;;;;;;;9.98;7.15;;;7.10;99.90;;;;;;5098116;28;20025;-83
2022/04/24 00:56:10;;;;;;;10.65;6.70;;;7.00;99.90;;;;;;5081124;28;20048;-83
2022/04/24 00:58:36;;;;;;;12.95;7.53;;;7.10;99.90;;;;;;5098736;28;20040;-81
2022/04/24 01:01:02;;;;;;;14.55;6.82;;;7.00;99.90;;;;;;5098425;28;20036;-83
2022/04/24 01:03:28;;;;;;;12.65;7.43;;;7.10;99.90;;;;;;5098412;28;20036;-82
2022/04/24 01:05:55;;;;;;;12.07;6.85;;;7.00;99.90;;;;;;5097952;28;20079;-81
2022/04/24 01:08:20;;;;;;;9.85;7.18;;;7.10;99.90;;;;;;5089590;28;20071;-82
2022/04/24 01:10:46;;;;;;;10.00;6.82;;;6.90;99.90;;;;;;5074011;28;20036;-82
2022/04/24 01:13:12;;;;;;;11.80;6.70;;;6.90;99.90;;;;;;5073566;28;20048;-83
2022/04/24 01:15:37;;;;;;;13.00;6.93;;;6.90;99.90;;;;;;5074087;28;20040;-82
2022/04/24 01:18:03;;;;;;;12.02;7.20;;;6.90;99.90;;;;;;5073799;28;20047;-82
2022/04/24 01:20:29;;;;;;;12.95;7.78;;;6.90;99.90;;;;;;5073649;28;20032;-83
2022/04/24 01:22:54;;;;;;;13.27;8.30;;;6.80;99.90;;;;;;5073726;28;20116;-82
2022/04/24 01:25:20;;;;;;;13.57;7.70;;;6.70;99.90;;;;;;5073390;28;20479;-82
2022/04/24 01:27:45;;;;;;;14.35;8.05;;;6.70;99.90;;;;;;5073036;28;20052;-81
2022/04/24 01:30:14;;;;;;;15.70;8.38;;;6.70;99.90;;;;;;5073234;28;20045;-82
2022/04/24 01:32:40;;;;;;;20.20;9.43;;;6.50;99.90;;;;;;5073210;28;20063;-83
2022/04/24 01:35:11;;;;;;;11.85;6.97;;;6.50;99.90;;;;;;5073278;28;20153;-83
2022/04/24 01:37:37;;;;;;;14.15;8.15;;;6.60;99.90;;;;;;5055712;28;20056;-82
2022/04/24 01:40:03;;;;;;;17.27;8.90;;;6.40;99.90;;;;;;5055433;28;20059;-82
2022/04/24 01:42:28;;;;;;;12.68;8.82;;;6.40;99.90;;;;;;5055208;28;20119;-82
2022/04/24 01:44:54;;;;;;;18.65;8.68;;;6.40;99.90;;;;;;5072746;28;20060;-82
2022/04/24 01:47:19;;;;;;;11.57;7.93;;;6.40;99.90;;;;;;5073015;28;20135;-82
2022/04/24 01:49:45;;;;;;;12.43;8.27;;;6.30;99.90;;;;;;5073129;28;20040;-81
2022/04/24 01:52:10;;;;;;;12.80;7.25;;;6.20;99.90;;;;;;5073059;28;20047;-83
2022/04/24 01:54:37;;;;;;;13.18;7.85;;;6.20;99.90;;;;;;5072636;28;20036;-82
2022/04/24 01:57:02;;;;;;;13.20;7.75;;;6.20;99.90;;;;;;5073327;28;20129;-82
2022/04/24 01:59:28;;;;;;;15.43;8.88;;;6.10;99.90;;;;;;5072993;28;20142;-82
2022/04/24 02:01:53;;;;;;;12.00;7.57;;;6.10;99.90;;;;;;5072681;28;20044;-81
2022/04/24 02:04:22;;;;;;;15.57;8.10;;;6.20;99.90;;;;;;5073231;28;20071;-82
2022/04/24 02:06:49;;;;;;;13.75;7.85;;;6.10;99.90;;;;;;5072769;28;20082;-82
2022/04/24 02:09:14;;;;;;;12.68;8.52;;;6.10;99.90;;;;;;5073092;28;20044;-80
2022/04/24 02:11:40;;;;;;;14.60;8.38;;;6.00;99.90;;;;;;5072729;28;20048;-82
2022/04/24 02:14:05;;;;;;;15.35;8.73;;;6.00;99.90;;;;;;5072528;28;20123;-81
2022/04/24 02:16:31;;;;;;;14.57;8.68;;;6.10;99.90;;;;;;5072326;28;20071;-82
2022/04/24 02:18:57;;;;;;;11.95;8.00;;;6.10;99.90;;;;;;5075494;28;20107;-82
2022/04/24 02:21:23;;;;;;;11.30;7.65;;;6.10;99.90;;;;;;5079558;28;20048;-82
2022/04/24 02:23:49;;;;;;;16.65;8.88;;;6.00;99.90;;;;;;5079252;28;20040;-82
2022/04/24 02:26:14;;;;;;;16.25;9.82;;;6.00;99.90;;;;;;5079412;28;20083;-82
2022/04/24 02:28:40;;;;;;;11.18;8.48;;;6.00;99.90;;;;;;5079460;28;20043;-81
2022/04/24 02:31:09;;;;;;;13.88;8.98;;;6.00;99.90;;;;;;5079408;28;20506;-81
2022/04/24 02:33:34;;;;;;;14.50;9.27;;;5.90;99.90;;;;;;5078662;28;20559;-81
2022/04/24 02:36:00;;;;;;;13.18;8.55;;;5.90;99.90;;;;;;5061237;28;20056;-83
2022/04/24 02:38:25;;;;;;;14.35;9.63;;;5.80;99.90;;;;;;5079368;28;20097;-81
2022/04/24 02:40:51;;;;;;;15.68;9.93;;;5.70;99.90;;;;;;5061468;28;20045;-81
2022/04/24 02:43:17;;;;;;;15.80;9.68;;;5.70;99.90;;;;;;5079623;28;20048;-81
2022/04/24 02:45:46;;;;;;;16.15;10.13;;;5.70;99.90;;;;;;5079422;28;20044;-82
2022/04/24 02:48:12;;;;;;;15.75;9.95;;;5.60;99.90;;;;;;5078896;28;20551;-83
2022/04/24 02:50:39;;;;;;;14.13;9.05;;;5.60;99.90;;;;;;5061477;28;20119;-81
2022/04/24 02:53:05;;;;;;;17.23;11.20;;;5.60;99.90;;;;;;5061174;28;20053;-81
2022/04/24 02:55:34;;;;;;;17.75;9.48;;;5.50;99.90;;;;;;5078907;28;20086;-81
2022/04/24 02:58:00;;;;;;;14.52;9.90;;;5.40;99.90;;;;;;5079051;28;20204;-82
2022/04/24 03:00:39;;;;;;;18.58;10.15;;;5.40;99.90;;;;;;5061259;28;20041;-82
2022/04/24 03:03:05;;;;;;;14.05;9.55;;;5.30;99.90;;;;;;5079431;28;20394;-81
2022/04/24 03:05:31;;;;;;;15.75;9.80;;;5.30;99.90;;;;;;5061593;28;20124;-83
2022/04/24 03:07:56;;;;;;;15.00;9.45;;;5.30;99.90;;;;;;5061381;28;20100;-82
2022/04/24 03:10:22;;;;;;;18.65;10.45;;;5.30;99.90;;;;;;5079340;28;20037;-82
2022/04/24 03:12:48;;;;;;;15.98;9.18;;;5.20;99.90;;;;;;5079032;28;20053;-83
2022/04/24 03:15:14;;;;;;;15.15;10.30;;;5.20;99.90;;;;;;5079269;28;20128;-81
2022/04/24 03:17:40;;;;;;;14.38;9.52;;;5.20;99.90;;;;;;5079274;28;20128;-82
2022/04/24 03:20:07;;;;;;;15.85;9.40;;;6.20;99.90;;;;;;5079135;28;20115;-82
2022/04/24 03:22:34;;;;;;;17.83;10.07;;;5.40;99.90;;;;;;5061105;28;20044;-81
2022/04/24 03:25:00;;;;;;;14.55;9.75;;;5.40;99.90;;;;;;5079242;28;20036;-81
2022/04/24 03:27:26;;;;;;;12.55;9.13;;;5.40;99.90;;;;;;5078900;28;20048;-81
2022/04/24 03:29:52;;;;;;;14.10;9.55;;;5.50;99.90;;;;;;5078181;28;20479;-81
2022/04/24 03:32:18;;;;;;;14.73;9.90;;;5.50;99.90;;;;;;5057404;28;20055;-81
2022/04/24 03:34:43;;;;;;;15.80;9.70;;;5.50;99.90;;;;;;5075713;28;20044;-82
2022/04/24 03:37:09;;;;;;;15.90;9.18;;;5.60;99.90;;;;;;5076123;28;20475;-81
2022/04/24 03:39:34;;;;;;;19.23;9.20;;;5.60;99.90;;;;;;5075912;28;20154;-81
2022/04/24 03:42:00;;;;;;;14.80;9.45;;;5.50;99.90;;;;;;5076137;28;20517;-81
2022/04/24 03:44:26;;;;;;;12.52;8.68;;;5.50;99.90;;;;;;5076304;28;20040;-82
2022/04/24 03:46:52;;;;;;;13.25;8.90;;;5.50;99.90;;;;;;5058628;28;20445;-81
2022/04/24 03:49:17;;;;;;;15.35;8.98;;;5.50;99.90;;;;;;5077170;28;20037;-82
2022/04/24 03:51:43;;;;;;;15.60;9.45;;;5.50;99.90;;;;;;5077113;28;20040;-82
2022/04/24 03:54:08;;;;;;;18.10;9.05;;;5.50;99.90;;;;;;5076703;28;20403;-82
2022/04/24 03:56:34;;;;;;;15.00;9.43;;;5.50;99.90;;;;;;5058747;28;20044;-81
2022/04/24 03:59:00;;;;;;;16.33;9.45;;;5.60;99.90;;;;;;5061240;28;20044;-80
2022/04/24 04:01:26;;;;;;;13.82;9.43;;;5.60;99.90;;;;;;5079960;28;20036;-83
2022/04/24 04:03:51;;;;;;;13.98;8.35;;;5.60;99.90;;;;;;5099363;28;20020;-83
2022/04/24 04:06:17;;;;;;;14.43;9.25;;;5.60;99.90;;;;;;5099541;28;20100;-82
2022/04/24 04:08:43;;;;;;;15.38;8.93;;;5.60;99.90;;;;;;5098624;28;20037;-81
2022/04/24 04:11:08;;;;;;;13.52;8.75;;;5.50;99.90;;;;;;5097557;28;20059;-81
2022/04/24 04:13:34;;;;;;;16.65;9.85;;;5.50;99.90;;;;;;5097106;28;20071;-81
2022/04/24 04:16:00;;;;;;;13.30;8.48;;;5.40;99.90;;;;;;5063820;28;20044;-82
2022/04/24 04:18:26;;;;;;;16.55;9.52;;;5.40;99.90;;;;;;5076103;28;20095;-82
2022/04/24 04:20:51;;;;;;;15.63;8.50;;;5.40;99.90;;;;;;5085615;28;20070;-81
2022/04/24 04:23:17;;;;;;;19.58;9.25;;;5.30;99.90;;;;;;5093453;28;20555;-81
2022/04/24 04:25:45;;;;;;;13.65;8.35;;;5.30;99.90;;;;;;5085071;28;20036;-81
2022/04/24 04:28:10;;;;;;;13.60;8.85;;;5.30;99.90;;;;;;5074943;28;20086;-82
2022/04/24 04:30:36;;;;;;;14.32;8.93;;;5.30;99.90;;;;;;5074967;28;20044;-81
2022/04/24 04:33:01;;;;;;;16.63;9.45;;;5.40;99.90;;;;;;5074822;28;20037;-82
2022/04/24 04:35:27;;;;;;;12.25;8.23;;;5.30;99.90;;;;;;5056601;28;20439;-82
2022/04/24 04:37:53;;;;;;;14.60;9.00;;;5.50;99.90;;;;;;5074425;28;20467;-81
2022/04/24 04:40:20;;;;;;;16.90;8.88;;;5.30;99.90;;;;;;5074335;28;20040;-81
2022/04/24 04:42:47;;;;;;;16.75;8.57;;;5.30;99.90;;;;;;5056956;28;20391;-81
2022/04/24 04:45:14;;;;;;;15.65;8.27;;;5.30;99.90;;;;;;5074321;28;20498;-81
2022/04/24 04:47:40;;;;;;;15.65;9.13;;;5.40;99.90;;;;;;5074537;28;20044;-81
2022/04/24 04:50:09;;;;;;;17.27;8.75;;;5.50;99.90;;;;;;5074607;28;20087;-82
2022/04/24 04:52:35;;;;;;;13.93;7.70;;;5.60;99.90;;;;;;5040687;28;20064;-82
2022/04/24 04:55:02;;;;;;;11.68;8.02;;;5.70;99.90;;;;;;5074769;28;20414;-82
2022/04/24 04:57:28;;;;;;;13.57;8.07;;;5.80;99.90;;;;;;5074364;28;20070;-81
2022/04/24 04:59:53;;;;;;;14.45;8.50;;;5.90;99.90;;;;;;5074403;28;20049;-82
2022/04/24 05:02:19;;;;;;;14.38;7.95;;;6.00;99.90;;;;;;5074279;28;20115;-81
2022/04/24 05:04:45;;;;;;;15.35;9.02;;;6.10;99.90;;;;;;5074357;28;20044;-82
2022/04/24 05:07:14;;;;;;;16.02;8.63;;;6.20;99.90;;;;;;5056394;28;20394;-82
2022/04/24 05:09:39;;;;;;;15.60;8.32;;;7.00;99.90;;;;;;5056482;28;20076;-82
2022/04/24 05:12:09;;;;;;;14.98;8.98;;;6.50;99.90;;;;;;5074213;28;20549;-81
2022/04/24 05:14:34;;;;;;;14.00;8.35;;;6.50;99.90;;;;;;5074074;28;20047;-82
2022/04/24 05:17:00;;;;;;;13.65;8.50;;;6.60;99.90;;;;;;5074139;28;20044;-82
2022/04/24 05:19:26;;;;;;;12.98;8.40;;;6.70;99.90;;;;;;5073883;28;20037;-82
2022/04/24 05:21:52;;;;;;;19.25;8.85;;;6.80;99.90;;;;;;5073992;28;20040;-81
2022/04/24 05:24:18;;;;;;;16.73;9.52;;;6.90;99.90;;;;;;5073677;28;20044;-80
2022/04/24 05:26:44;;;;;;;16.20;8.57;;;7.00;99.90;;;;;;5073960;28;20044;-82
2022/04/24 05:29:10;;;;;;;16.27;8.77;;;7.10;99.90;;;;;;5055857;28;20040;-82
2022/04/24 05:31:36;;;;;;;16.17;8.50;;;7.20;99.90;;;;;;5073672;28;20041;-82
2022/04/24 05:34:02;;;;;;;16.20;8.85;;;7.20;99.90;;;;;;5073884;28;20089;-83
2022/04/24 05:36:27;;;;;;;15.27;8.32;;;7.30;99.90;;;;;;5073327;28;20040;-81
2022/04/24 05:38:53;;;;;;;15.38;9.80;;;7.40;99.90;;;;;;5073441;28;20047;-82
2022/04/24 05:41:18;;;;;;;13.73;8.52;;;7.60;99.90;;;;;;5073715;28;20040;-81
2022/04/24 05:43:44;;;;;;;15.05;8.27;;;7.70;99.90;;;;;;5073176;28;20041;-82
2022/04/24 05:46:09;;;;;;;18.15;8.27;;;7.90;99.90;;;;;;5055326;28;20582;-83
2022/04/24 05:48:35;;;;;;;12.07;7.80;;;8.00;99.90;;;;;;5073924;28;20475;-82
2022/04/24 05:51:01;;;;;;;12.50;7.32;;;8.10;99.90;;;;;;5072904;28;20045;-82
2022/04/24 05:53:26;;;;;;;13.60;9.02;;;8.20;99.90;;;;;;5072479;28;20063;-82
2022/04/24 05:55:52;;;;;;;14.18;8.98;;;8.30;99.90;;;;;;5066038;28;20037;-82
2022/04/24 05:58:17;;;;;;;18.33;8.75;;;8.40;99.90;;;;;;5067942;28;20040;-81
2022/04/24 06:00:43;;;;;;;14.63;8.95;;;8.50;99.90;;;;;;5065185;28;20359;-82
2022/04/24 06:03:08;;;;;;;15.10;8.70;;;8.60;99.90;;;;;;5060848;28;20059;-82
2022/04/24 06:05:34;;;;;;;13.07;7.18;;;8.70;99.90;;;;;;5065553;28;20486;-82
2022/04/24 06:08:00;;;;;;;14.70;7.60;;;8.70;99.90;;;;;;5065199;28;20040;-82
2022/04/24 06:10:25;;;;;;;11.70;7.55;;;8.80;99.90;;;;;;5061865;28;20051;-82
2022/04/24 06:12:53;;;;;;;12.50;7.85;;;8.90;99.90;;;;;;5070661;28;20044;-82
2022/04/24 06:15:21;;;;;;;15.23;8.55;;;9.00;99.90;;;;;;5049416;28;20052;-81
2022/04/24 06:17:50;;;;;;;12.45;7.03;;;9.30;99.90;;;;;;5073429;28;20037;-82
2022/04/24 06:20:16;;;;;;;12.13;7.15;;;9.40;99.90;;;;;;5073525;28;20406;-82
2022/04/24 06:22:46;;;;;;;14.27;7.05;;;9.40;99.90;;;;;;5073330;28;20494;-83
2022/04/24 06:25:17;;;;;;;11.55;7.22;;;9.40;99.90;;;;;;5073652;28;20182;-82
2022/04/24 06:27:44;;;;;;;11.68;6.95;;;9.50;99.90;;;;;;5073571;28;20094;-82
2022/04/24 06:30:11;;;;;;;12.38;6.97;;;9.40;99.90;;;;;;5073735;28;20037;-83
2022/04/24 06:32:41;;;;;;;12.15;6.55;;;9.40;99.90;;;;;;5055473;28;20036;-82
2022/04/24 06:35:09;;;;;;;12.73;6.72;;;9.30;99.90;;;;;;5073276;28;20044;-81
2022/04/24 06:37:39;;;;;;;10.23;6.35;;;9.40;99.90;;;;;;5073331;28;20048;-82
2022/04/24 06:40:09;;;;;;;11.38;6.15;;;9.60;99.90;;;;;;5056416;28;20443;-82
2022/04/24 06:42:46;;;;;;;11.77;5.03;;;10.00;99.90;;;;;;5074041;28;20041;-80
2022/04/24 06:45:14;;;;;;;10.65;5.25;;;10.10;99.90;;;;;;5056061;28;20036;-81
2022/04/24 06:47:42;;;;;;;11.20;5.82;;;10.00;99.90;;;;;;5056562;28;20474;-82
2022/04/24 06:50:10;;;;;;;8.63;4.82;;;10.10;99.90;;;;;;5057078;28;20094;-82
2022/04/24 06:52:36;;;;;;;10.48;4.72;;;10.30;99.90;;;;;;5074414;28;20458;-80
2022/04/24 06:55:01;;;;;;;10.73;5.50;;;10.70;99.90;;;;;;5057145;28;20570;-82
2022/04/24 06:57:27;;;;;;;7.28;4.32;;;11.10;99.90;;;;;;5073089;28;20045;-82
2022/04/24 06:59:53;;;;;;;7.13;3.90;;;11.50;99.90;;;;;;5055748;28;20228;-82
2022/04/24 07:02:18;;;;;;;6.88;3.30;;;12.10;99.90;;;;;;5021450;28;20048;-81
2022/04/24 07:04:44;;;;;;;4.88;3.00;;;12.30;99.80;;;;;;5052856;28;20061;-81
2022/04/24 07:07:10;;;;;;;9.50;3.15;;;12.70;94.80;;;;;;5069289;28;20025;-83
2022/04/24 07:09:35;;;;;;;5.40;3.05;;;12.40;89.90;;;;;;5097780;28;20021;-85
2022/04/24 07:12:01;;;;;;;6.20;2.83;;;12.60;87.10;;;;;;5098478;28;20079;-85
2022/04/24 07:14:26;;;;;;;8.93;2.97;;;12.90;83.10;;;;;;5073893;28;20032;-85
2022/04/24 07:16:52;;;;;;;6.95;3.08;;;13.00;77.40;;;;;;5071246;28;20031;-84
2022/04/24 07:19:17;;;;;;;5.28;2.38;;;13.00;73.10;;;;;;5066996;28;20047;-84
2022/04/24 07:21:43;;;;;;;6.55;2.80;;;13.10;70.60;;;;;;5075567;28;20017;-83
2022/04/24 07:24:08;;;;;;;6.13;2.72;;;13.20;63.80;;;;;;5087384;28;20086;-83
2022/04/24 07:26:34;;;;;;;5.10;2.47;;;12.50;74.80;;;;;;5075495;28;20041;-81
2022/04/24 07:28:59;;;;;;;6.57;2.40;;;12.60;82.40;;;;;;5075458;28;20048;-83
2022/04/24 07:31:25;;;;;;;6.50;2.30;;;14.00;78.30;;;;;;5071721;28;20398;-83
2022/04/24 07:33:52;;;;;;;4.60;2.17;;;13.90;58.80;;;;;;5087003;28;20036;-83
2022/04/24 07:36:18;;;;;;;5.72;2.60;;;13.80;60.30;;;;;;5082100;28;20047;-81
2022/04/24 07:38:43;;;;;;;3.67;2.00;;;14.00;58.00;;;;;;5057324;28;20406;-83
2022/04/24 07:41:10;;;;;;;5.70;2.28;;;14.30;50.00;;;;;;5075492;28;20075;-82
2022/04/24 07:43:36;;;;;;;4.72;2.00;;;14.00;52.20;;;;;;5067682;28;20052;-82
2022/04/24 07:46:01;;;;;;;4.55;2.65;;;13.70;53.70;;;;;;5053422;28;20155;-82
2022/04/24 07:48:27;;;;;;;5.82;2.58;;;13.40;57.70;;;;;;5053597;28;20044;-82
2022/04/24 07:50:53;;;;;;;3.55;1.90;;;12.80;66.10;;;;;;5055493;28;20037;-83
2022/04/24 07:53:20;;;;;;;5.68;2.60;;;12.80;68.20;;;;;;5073529;28;20037;-80
2022/04/24 07:55:50;;;;;;;6.72;2.38;;;12.70;67.80;;;;;;5073186;28;20067;-82
2022/04/24 07:58:16;;;;;;;7.97;2.45;;;12.80;67.60;;;;;;5040219;28;20041;-82
2022/04/24 08:00:47;;;;;;;8.43;2.60;;;12.80;71.20;;;;;;5074918;28;20131;-82
2022/04/24 08:03:14;;;;;;;6.47;2.95;;;12.70;76.30;;;;;;5074128;28;20048;-82
2022/04/24 08:05:45;;;;;;;6.50;2.90;;;14.10;76.40;;;;;;5074747;28;20375;-80
2022/04/24 08:08:15;;;;;;;8.52;2.80;;;14.00;61.10;;;;;;5056707;28;20044;-82
2022/04/24 08:10:43;;;;;;;7.18;2.63;;;14.80;48.90;;;;;;5074628;28;20041;-82
2022/04/24 08:13:09;;;;;;;8.02;2.88;;;15.20;43.30;;;;;;5074720;28;20040;-82
2022/04/24 08:15:36;;;;;;;6.63;2.58;;;15.40;38.90;;;;;;5074360;28;20503;-82
2022/04/24 08:18:03;;;;;;;5.10;2.75;;;15.60;37.30;;;;;;5056006;28;20044;-82
2022/04/24 08:20:30;;;;;;;8.77;3.15;;;15.80;31.00;;;;;;5074387;28;20430;-82
2022/04/24 08:22:59;;;;;;;5.88;2.70;;;16.10;29.60;;;;;;5072956;28;20063;-82
2022/04/24 08:25:26;;;;;;;5.80;3.08;;;15.90;31.50;;;;;;5073677;28;20414;-82
2022/04/24 08:27:54;;;;;;;6.10;2.58;;;16.30;29.00;;;;;;5074175;28;20051;-81
2022/04/24 08:30:21;;;;;;;16.17;3.10;;;17.00;30.20;;;;;;5074640;28;20044;-83
2022/04/24 08:32:48;;;;;;;12.85;2.65;;;16.10;26.90;;;;;;5056734;28;20087;-84
2022/04/24 08:35:16;;;;;;;7.22;2.95;;;16.30;27.70;;;;;;5059359;28;20041;-82
2022/04/24 08:37:45;;;;;;;6.85;2.55;;;15.50;27.80;;;;;;5076644;28;20044;-83
2022/04/24 08:40:14;;;;;;;6.18;3.08;;;16.00;29.30;;;;;;5059101;28;20048;-82
2022/04/24 08:42:41;;;;;;;4.38;2.25;;;16.00;27.80;;;;;;5076897;28;20446;-81
2022/04/24 08:45:12;;;;;;;9.95;2.53;;;16.30;25.20;;;;;;5076835;28;20054;-83
2022/04/24 08:47:38;;;;;;;8.07;2.92;;;16.60;25.20;;;;;;5058599;28;20513;-82
2022/04/24 08:50:04;;;;;;;9.02;3.47;;;16.50;25.60;;;;;;5076524;28;20398;-81
2022/04/24 08:52:32;;;;;;;4.22;2.72;;;16.70;23.50;;;;;;5076516;28;20119;-81
2022/04/24 08:54:58;;;;;;;7.15;3.28;;;16.10;25.40;;;;;;5058343;28;20083;-79
2022/04/24 08:57:30;;;;;;;7.85;3.00;;;16.50;22.90;;;;;;5058402;28;20048;-81
2022/04/24 09:00:00;;;;;;;6.68;2.90;;;15.90;23.00;;;;;;5074526;28;20094;-80
2022/04/24 09:02:26;;;;;;;6.97;3.15;;;16.10;22.00;;;;;;5074001;28;20462;-81
2022/04/24 09:04:53;;;;;;;5.95;2.88;;;16.20;20.20;;;;;;5055788;28;20076;-81
2022/04/24 09:07:20;;;;;;;9.57;2.95;;;16.50;22.20;;;;;;5055567;28;20072;-82
2022/04/24 09:09:53;;;;;;;5.13;2.38;;;16.20;24.80;;;;;;5073521;28;20436;-81
2022/04/24 09:12:24;;;;;;;6.43;3.38;;;16.00;26.00;;;;;;5039374;28;20037;-81
2022/04/24 09:14:54;;;;;;;8.68;2.97;;;16.20;22.40;;;;;;5056245;28;20120;-83
2022/04/24 09:17:22;;;;;;;10.10;3.08;;;16.00;23.90;;;;;;5056289;28;20090;-82
2022/04/24 09:19:49;;;;;;;6.57;2.45;;;16.20;22.80;;;;;;5039694;28;20040;-82
2022/04/24 09:22:15;;;;;;;8.05;2.95;;;16.70;23.00;;;;;;5074122;28;20074;-83
2022/04/24 09:24:49;;;;;;;8.57;2.80;;;17.20;19.10;;;;;;5074233;28;20048;-82
2022/04/24 09:27:32;;;;;;;6.03;2.78;;;17.00;19.20;;;;;;5056737;28;20033;-82
2022/04/24 09:30:11;;;;;;;7.05;2.50;;;16.60;18.00;;;;;;5074423;28;20045;-80
2022/04/24 09:32:51;;;;;;;4.88;2.25;;;16.40;18.80;;;;;;5074222;28;20076;-81
2022/04/24 09:35:32;;;;;;;6.10;2.47;;;16.40;17.00;;;;;;5074184;28;20536;-82
2022/04/24 09:38:14;;;;;;;5.22;2.25;;;16.40;17.30;;;;;;5056335;28;20119;-81
2022/04/24 09:40:42;;;;;;;5.85;2.80;;;16.40;16.70;;;;;;5073451;28;20568;-81
2022/04/24 09:43:09;;;;;;;5.65;2.90;;;16.80;16.00;;;;;;5072986;28;20124;-82
2022/04/24 09:45:35;;;;;;;7.28;2.65;;;16.90;18.70;;;;;;5038424;28;20040;-83
2022/04/24 09:48:02;;;;;;;6.45;2.67;;;16.70;16.80;;;;;;5055933;28;20052;-81
2022/04/24 09:50:31;;;;;;;8.00;2.85;;;16.40;19.20;;;;;;5038222;28;20048;-82
2022/04/24 09:53:01;;;;;;;6.43;2.55;;;16.20;20.40;;;;;;5072992;28;20048;-82
2022/04/24 09:55:27;;;;;;;5.22;2.47;;;16.30;19.00;;;;;;5072596;28;20154;-81
2022/04/24 09:57:54;;;;;;;4.80;2.47;;;16.50;18.50;;;;;;5055074;28;20057;-81
2022/04/24 10:00:23;;;;;;;5.50;2.60;;;16.40;18.50;;;;;;5072739;28;20087;-80
2022/04/24 10:02:51;;;;;;;5.95;2.53;;;16.10;19.00;;;;;;5072750;28;20099;-82
2022/04/24 10:05:18;;;;;;;4.63;2.25;;;16.40;21.30;;;;;;5072970;28;20044;-83
2022/04/24 10:07:47;;;;;;;7.72;2.58;;;16.00;18.50;;;;;;5055009;28;20553;-81
2022/04/24 10:10:14;;;;;;;5.13;2.88;;;15.90;18.80;;;;;;5073717;28;20075;-83
2022/04/24 10:12:43;;;;;;;5.63;2.75;;;16.00;19.80;;;;;;5073382;28;20133;-81
2022/04/24 10:15:14;;;;;;;7.45;2.85;;;16.10;17.90;;;;;;5073712;28;20036;-81
2022/04/24 10:17:56;;;;;;;6.53;2.75;;;16.70;19.40;;;;;;5074490;28;20087;-83
2022/04/24 10:20:58;;;;;;;4.68;2.42;;;16.30;16.90;;;;;;5074963;28;20051;-81
2022/04/24 10:23:36;;;;;;;5.53;2.75;;;16.30;21.40;;;;;;5057551;28;20044;-79
2022/04/24 10:26:03;;;;;;;7.22;2.47;;;16.40;21.30;;;;;;5061294;28;20056;-84
2022/04/24 10:28:39;;;;;;;4.57;2.13;;;16.30;20.00;;;;;;5096888;28;20028;-84
2022/04/24 10:31:09;;;;;;;6.28;2.78;;;16.40;19.40;;;;;;5079393;28;20058;-85
2022/04/24 10:33:39;;;;;;;4.65;2.67;;;16.60;19.20;;;;;;5061309;28;20036;-82
2022/04/24 10:36:13;;;;;;;5.53;2.28;;;17.00;18.80;;;;;;5090583;28;20048;-84
2022/04/24 10:38:47;;;;;;;5.88;2.20;;;17.10;14.90;;;;;;5096941;28;20077;-84
2022/04/24 10:41:19;;;;;;;4.18;2.00;;;17.10;12.20;;;;;;5100286;28;20031;-83
2022/04/24 10:43:48;;;;;;;4.47;2.30;;;17.80;13.70;;;;;;5083624;28;20122;-84
2022/04/24 10:46:23;;;;;;;4.78;2.50;;;16.80;18.70;;;;;;5047604;28;20048;-82
2022/04/24 10:48:49;;;;;;;5.53;2.05;;;16.80;17.40;;;;;;5076625;28;20052;-81
2022/04/24 10:51:30;;;;;;;8.05;2.60;;;17.10;15.20;;;;;;5077531;28;20102;-82
2022/04/24 10:53:59;;;;;;;6.07;2.08;;;16.80;13.10;;;;;;5078393;28;20037;-82
2022/04/24 10:56:29;;;;;;;5.35;2.00;;;16.20;10.80;;;;;;5059174;28;20056;-83
2022/04/24 10:59:10;;;;;;;7.78;2.03;;;16.00;16.60;;;;;;5076753;28;20045;-82
2022/04/24 11:01:37;;;;;;;4.38;2.20;;;16.40;18.10;;;;;;5077214;28;20028;-81
2022/04/24 11:04:10;;;;;;;8.93;2.20;;;16.70;14.90;;;;;;5076471;28;20036;-82
2022/04/24 11:06:37;;;;;;;5.85;2.25;;;16.30;12.70;;;;;;5058647;28;20056;-82
2022/04/24 11:09:13;;;;;;;8.88;2.42;;;15.80;15.30;;;;;;5042158;28;20441;-81
2022/04/24 11:11:46;;;;;;;7.90;2.38;;;15.60;17.50;;;;;;5076101;28;20037;-81
2022/04/24 11:14:25;;;;;;;7.22;2.10;;;15.90;20.10;;;;;;5058052;28;20047;-82
2022/04/24 11:16:58;;;;;;;4.43;2.28;;;16.30;18.60;;;;;;5075857;28;20429;-81
2022/04/24 11:19:26;;;;;;;6.85;2.67;;;16.60;17.50;;;;;;5078017;28;20539;-82
2022/04/24 11:21:58;;;;;;;5.03;2.08;;;16.40;14.90;;;;;;5078586;28;20041;-82
2022/04/24 11:24:26;;;;;;;8.05;1.98;;;16.80;13.10;;;;;;5077017;28;20076;-82
2022/04/24 11:26:52;;;;;;;3.85;2.03;;;16.70;13.70;;;;;;5060468;28;20041;-82
2022/04/24 11:29:19;;;;;;;5.57;2.30;;;17.20;12.40;;;;;;5077176;28;20036;-81
2022/04/24 11:31:49;;;;;;;4.78;2.20;;;17.60;10.60;;;;;;5076146;28;20926;-82
2022/04/24 11:34:20;;;;;;;4.43;2.53;;;16.70;12.40;;;;;;5075544;28;20184;-82
2022/04/24 11:36:46;;;;;;;8.52;2.22;;;16.20;13.90;;;;;;5075888;28;20044;-82
2022/04/24 11:39:12;;;;;;;8.90;2.30;;;16.50;12.20;;;;;;5075375;28;20040;-81
2022/04/24 11:41:39;;;;;;;6.07;1.75;;;17.40;9.60;;;;;;5075420;28;20048;-83
2022/04/24 11:52:28;;;;;;;5.57;2.33;;;18.70;4.40;;;;;;5074229;28;20465;-82
2022/04/24 11:54:56;;;;;;;5.65;2.35;;;18.20;7.20;;;;;;5040302;28;20120;-82
2022/04/24 11:57:21;;;;;;;7.72;2.55;;;17.00;7.60;;;;;;5056591;28;20160;-83
2022/04/24 11:59:54;;;;;;;10.07;2.90;;;16.10;10.50;;;;;;5074916;28;20487;-80
2022/04/24 12:02:26;;;;;;;4.60;2.10;;;15.90;11.70;;;;;;5074401;28;20086;-82
2022/04/24 12:04:53;;;;;;;5.50;2.40;;;16.40;11.70;;;;;;5057574;28;20083;-82
2022/04/24 12:07:19;;;;;;;5.07;2.40;;;17.10;15.50;;;;;;5074727;28;20499;-81
2022/04/24 12:09:56;;;;;;;5.53;2.70;;;17.40;9.80;;;;;;5057173;28;20052;-82
2022/04/24 12:12:21;;;;;;;7.55;2.70;;;16.50;11.10;;;;;;5075200;28;20040;-82
2022/04/24 12:14:53;;;;;;;5.22;2.33;;;16.70;12.50;;;;;;5074921;28;20093;-82
2022/04/24 12:17:22;;;;;;;159.93;15.73;;;16.80;11.70;;;;;;5074827;28;20047;-82
2022/04/24 12:19:54;;;;;;;13.32;3.58;;;16.40;12.90;;;;;;5056778;28;20045;-82
2022/04/24 12:22:30;;;;;;;7.45;2.53;;;16.10;14.20;;;;;;5057658;28;20078;-82
2022/04/24 12:25:08;;;;;;;7.15;2.70;;;16.10;16.50;;;;;;5075248;28;20446;-82
2022/04/24 12:27:34;;;;;;;7.18;3.30;;;16.10;16.00;;;;;;5074871;28;20101;-81
2022/04/24 12:30:03;;;;;;;4.47;2.13;;;15.60;16.30;;;;;;5057729;28;20051;-83
2022/04/24 12:32:29;;;;;;;8.68;2.70;;;15.20;18.40;;;;;;5057609;28;20155;-82
2022/04/24 12:34:54;;;;;;;6.90;2.45;;;15.20;19.60;;;;;;5075375;28;20115;-82
2022/04/24 12:37:34;;;;;;;9.70;3.53;;;16.10;17.90;;;;;;5074751;28;20522;-82
2022/04/24 12:40:00;;;;;;;6.80;2.80;;;16.80;16.30;;;;;;5056242;28;20506;-83
2022/04/24 12:42:26;;;;;;;5.32;2.92;;;16.40;14.60;;;;;;5073634;28;20044;-80
2022/04/24 12:44:53;;;;;;;5.85;2.80;;;16.50;17.60;;;;;;5074206;28;20291;-83
2022/04/24 12:47:20;;;;;;;9.13;3.28;;;16.40;16.00;;;;;;5074367;28;20043;-81
2022/04/24 12:49:46;;;;;;;10.40;2.90;;;15.70;20.60;;;;;;5074069;28;20032;-82
2022/04/24 12:52:13;;;;;;;9.18;3.50;;;15.70;20.60;;;;;;5073925;28;20028;-81
2022/04/24 12:54:38;;;;;;;7.75;3.00;;;16.30;21.20;;;;;;5074077;28;20059;-83
2022/04/24 12:57:05;;;;;;;7.40;3.17;;;16.10;20.10;;;;;;5073557;28;20053;-82